createdAt,value
2024-03-02T00:01:11.262Z,73.94
2024-03-02T00:03:47.784Z,74.06
2024-03-02T00:06:17.039Z,74.36
2024-03-02T00:08:45.484Z,74.50
2024-03-02T00:11:16.601Z,74.63
2024-03-02T00:13:44.906Z,74.79
2024-03-02T00:16:13.378Z,74.67
2024-03-02T00:18:41.824Z,74.55
2024-03-02T00:21:14.709Z,74.64
2024-03-02T00:23:43.239Z,74.44
2024-03-02T00:26:13.822Z,74.32
2024-03-02T00:28:42.922Z,74.57
2024-03-02T00:31:14.292Z,74.54
2024-03-02T00:33:45.483Z,74.53
2024-03-02T00:36:22.584Z,74.68
2024-03-02T00:38:52.571Z,74.46
2024-03-02T00:41:24.819Z,74.52
2024-03-02T00:44:04.869Z,74.56
2024-03-02T00:46:38.396Z,74.84
2024-03-02T00:49:21.074Z,75.04
2024-03-02T00:51:51.273Z,74.80
2024-03-02T00:54:25.838Z,74.96
2024-03-02T00:56:56.823Z,74.60
2024-03-02T00:59:26.983Z,74.56
2024-03-02T01:01:55.448Z,74.61
2024-03-02T01:04:24.051Z,74.82
2024-03-02T01:06:52.431Z,74.71
2024-03-02T01:09:20.805Z,74.68
2024-03-02T01:11:49.488Z,74.56
2024-03-02T01:14:17.776Z,74.55
2024-03-02T01:16:46.146Z,74.68
2024-03-02T01:19:14.628Z,74.73
2024-03-02T01:21:43.134Z,74.76
2024-03-02T01:24:11.400Z,74.71
2024-03-02T01:26:39.463Z,74.87
2024-03-02T01:29:07.835Z,75.15
2024-03-02T01:31:36.317Z,75.35
2024-03-02T01:34:04.552Z,75.31
2024-03-02T01:36:33.107Z,75.08
2024-03-02T01:39:02.274Z,75.28
2024-03-02T01:41:30.860Z,75.37
2024-03-02T01:43:59.128Z,75.35
2024-03-02T01:46:27.612Z,75.52
2024-03-02T01:48:57.161Z,75.67
2024-03-02T01:51:25.457Z,75.83
2024-03-02T01:53:54.077Z,75.70
2024-03-02T01:56:23.074Z,75.89
2024-03-02T01:58:51.549Z,76.15
2024-03-02T02:01:20.302Z,76.01
2024-03-02T02:03:48.736Z,76.25
2024-03-02T02:06:17.266Z,76.38
2024-03-02T02:08:46.604Z,76.43
2024-03-02T02:11:19.126Z,76.24
2024-03-02T02:13:47.588Z,76.61
2024-03-02T02:16:15.937Z,76.76
2024-03-02T02:18:44.363Z,76.95
2024-03-02T02:21:12.586Z,77.05
2024-03-02T02:23:40.993Z,76.91
2024-03-02T02:26:09.059Z,76.72
2024-03-02T02:28:37.435Z,76.43
2024-03-02T02:31:05.722Z,76.46
2024-03-02T02:33:34.314Z,76.46
2024-03-02T02:36:02.860Z,76.56
2024-03-02T02:38:33.304Z,76.81
2024-03-02T02:41:01.660Z,76.72
2024-03-02T02:43:30.042Z,76.62
2024-03-02T02:45:58.390Z,76.74
2024-03-02T02:48:26.809Z,76.84
2024-03-02T02:50:55.084Z,77.03
2024-03-02T02:53:23.348Z,77.02
2024-03-02T02:55:51.623Z,77.08
2024-03-02T02:58:19.808Z,77.10
2024-03-02T03:00:48.132Z,77.06
2024-03-02T03:03:16.471Z,77.19
2024-03-02T03:05:44.886Z,77.08
2024-03-02T03:08:13.204Z,77.07
2024-03-02T03:10:41.581Z,77.19
2024-03-02T03:13:10.193Z,77.29
2024-03-02T03:15:38.902Z,77.31
2024-03-02T03:18:08.821Z,77.45
2024-03-02T03:20:37.286Z,77.36
2024-03-02T03:23:05.732Z,77.22
2024-03-02T03:25:33.754Z,77.53
2024-03-02T03:28:03.100Z,77.48
2024-03-02T03:30:31.699Z,77.35
2024-03-02T03:33:00.065Z,77.31
2024-03-02T03:35:28.269Z,77.50
2024-03-02T03:37:56.726Z,77.58
2024-03-02T03:40:25.408Z,77.57
2024-03-02T03:42:53.597Z,77.54
2024-03-02T03:45:22.322Z,77.65
2024-03-02T03:47:50.861Z,77.76
2024-03-02T03:50:19.237Z,77.91
2024-03-02T03:52:47.715Z,77.69
2024-03-02T03:55:15.909Z,77.82
2024-03-02T03:57:44.290Z,77.77
2024-03-02T04:00:13.294Z,77.89
2024-03-02T04:02:41.959Z,77.69
2024-03-02T04:05:12.934Z,77.84
2024-03-02T04:07:42.295Z,77.95
2024-03-02T04:10:12.188Z,78.10
2024-03-02T04:12:40.797Z,78.06
2024-03-02T04:15:09.781Z,78.21
2024-03-02T04:17:38.460Z,77.93
2024-03-02T04:20:08.085Z,78.05
2024-03-02T04:22:37.228Z,78.06
2024-03-02T04:25:06.583Z,78.01
2024-03-02T04:27:35.153Z,77.65
2024-03-02T04:30:06.152Z,77.85
2024-03-02T04:32:34.328Z,77.79
2024-03-02T04:35:02.646Z,77.64
2024-03-02T04:37:32.290Z,77.22
2024-03-02T04:40:00.723Z,77.27
2024-03-02T04:42:29.037Z,77.08
2024-03-02T04:44:57.407Z,77.14
2024-03-02T04:47:25.814Z,76.91
2024-03-02T04:49:54.884Z,76.74
2024-03-02T04:52:22.975Z,76.91
2024-03-02T04:55:09.535Z,76.86
2024-03-02T04:57:37.735Z,76.92
2024-03-02T05:00:10.239Z,76.95
2024-03-02T05:02:38.554Z,77.12
2024-03-02T05:05:07.260Z,77.30
2024-03-02T05:07:35.739Z,77.21
2024-03-02T05:10:04.431Z,77.05
2024-03-02T05:12:44.892Z,76.98
2024-03-02T05:15:16.080Z,77.17
2024-03-02T05:17:44.525Z,76.79
2024-03-02T05:20:14.178Z,77.07
2024-03-02T05:22:42.576Z,76.99
2024-03-02T05:25:13.506Z,76.78
2024-03-02T05:27:42.353Z,76.59
2024-03-02T05:30:11.409Z,76.70
2024-03-02T05:32:39.549Z,76.73
2024-03-02T05:35:09.065Z,76.53
2024-03-02T05:37:37.274Z,76.42
2024-03-02T05:40:07.170Z,76.61
2024-03-02T05:42:35.695Z,76.54
2024-03-02T05:45:04.295Z,76.30
2024-03-02T05:47:34.035Z,76.23
2024-03-02T05:50:02.519Z,76.03
2024-03-02T05:52:30.702Z,75.70
2024-03-02T05:54:59.054Z,75.81
2024-03-02T05:57:46.773Z,75.80
2024-03-02T06:00:18.252Z,75.75
2024-03-02T06:02:46.964Z,75.55
2024-03-02T06:05:16.398Z,75.60
2024-03-02T06:07:44.954Z,75.47
2024-03-02T06:10:14.406Z,75.14
2024-03-02T06:12:43.708Z,75.22
2024-03-02T06:15:14.684Z,74.97
2024-03-02T06:17:43.192Z,74.80
2024-03-02T06:20:11.965Z,74.56
2024-03-02T06:22:40.353Z,74.47
2024-03-02T06:25:09.788Z,74.23
2024-03-02T06:27:38.352Z,73.99
2024-03-02T06:30:07.205Z,73.64
2024-03-02T06:32:35.569Z,73.38
2024-03-02T06:35:06.094Z,72.98
2024-03-02T06:37:34.339Z,73.16
2024-03-02T06:40:02.526Z,73.00
2024-03-02T06:42:34.924Z,72.73
2024-03-02T06:45:04.736Z,72.76
2024-03-02T06:47:33.079Z,72.67
2024-03-02T06:50:01.694Z,71.97
2024-03-02T06:52:30.077Z,71.71
2024-03-02T06:54:58.353Z,71.51
2024-03-02T06:57:26.774Z,71.28
2024-03-02T07:00:00.158Z,70.58
2024-03-02T07:02:29.343Z,70.83
2024-03-02T07:04:57.906Z,70.59
2024-03-02T07:07:26.068Z,70.67
2024-03-02T07:09:54.216Z,69.92
2024-03-02T07:12:22.664Z,69.56
2024-03-02T07:15:06.202Z,69.41
2024-03-02T07:17:35.071Z,69.31
2024-03-02T07:20:04.965Z,69.22
2024-03-02T07:22:34.569Z,68.62
2024-03-02T07:25:03.997Z,68.07
2024-03-02T07:27:33.417Z,67.63
2024-03-02T07:30:01.680Z,67.28
2024-03-02T07:32:30.043Z,67.24
2024-03-02T07:34:58.225Z,67.28
2024-03-02T07:37:26.491Z,67.24
2024-03-02T07:39:54.695Z,67.08
2024-03-02T07:42:22.992Z,66.76
2024-03-02T07:44:51.113Z,66.23
2024-03-02T07:47:19.386Z,65.53
2024-03-02T07:49:47.957Z,65.37
2024-03-02T07:52:16.337Z,64.77
2024-03-02T07:54:44.407Z,64.90
2024-03-02T07:57:12.898Z,64.88
2024-03-02T07:59:41.177Z,64.04
2024-03-02T08:02:09.904Z,64.01
2024-03-02T08:04:38.344Z,63.93
2024-03-02T08:07:07.420Z,63.71
2024-03-02T08:09:35.726Z,63.35
2024-03-02T08:12:05.441Z,63.43
2024-03-02T08:14:33.636Z,63.83
2024-03-02T08:17:03.007Z,63.96
2024-03-02T08:19:31.882Z,63.79
2024-03-02T08:22:01.079Z,63.52
2024-03-02T08:24:29.699Z,63.14
2024-03-02T08:26:58.660Z,62.82
2024-03-02T08:29:26.970Z,62.54
2024-03-02T08:31:55.641Z,62.24
2024-03-02T08:34:23.907Z,62.68
2024-03-02T08:36:52.619Z,62.47
2024-03-02T08:39:22.121Z,62.65
2024-03-02T08:41:50.456Z,62.29
2024-03-02T08:44:18.786Z,61.71
2024-03-02T08:46:47.629Z,60.95
2024-03-02T08:49:15.844Z,60.66
2024-03-02T08:51:44.127Z,60.60
2024-03-02T08:54:12.376Z,60.94
2024-03-02T08:56:40.699Z,60.68
2024-03-02T08:59:09.434Z,61.39
2024-03-02T09:01:42.883Z,61.19
2024-03-02T09:04:11.251Z,60.86
2024-03-02T09:06:39.906Z,60.18
2024-03-02T09:09:08.191Z,60.55
2024-03-02T09:11:37.874Z,60.88
2024-03-02T09:14:06.370Z,60.84
2024-03-02T09:16:34.754Z,60.91
2024-03-02T09:19:03.091Z,60.62
2024-03-02T09:21:31.555Z,60.49
2024-03-02T09:23:59.961Z,60.07
2024-03-02T09:26:28.679Z,59.79
2024-03-02T09:28:57.028Z,59.70
2024-03-02T09:31:25.178Z,59.30
2024-03-02T09:33:53.448Z,58.93
2024-03-02T09:36:23.633Z,59.42
2024-03-02T09:38:51.809Z,59.20
2024-03-02T09:41:20.814Z,59.01
2024-03-02T09:43:50.206Z,58.12
2024-03-02T09:46:20.593Z,58.00
2024-03-02T09:48:48.769Z,57.96
2024-03-02T09:51:20.788Z,57.69
2024-03-02T09:53:50.176Z,57.29
2024-03-02T09:56:19.576Z,56.63
2024-03-02T09:58:47.845Z,56.75
2024-03-02T10:01:16.283Z,57.05
2024-03-02T10:03:47.129Z,56.35
2024-03-02T10:06:29.570Z,56.20
2024-03-02T10:08:58.053Z,55.52
2024-03-02T10:11:35.354Z,54.94
2024-03-02T10:14:14.079Z,54.79
2024-03-02T10:16:44.276Z,53.70
2024-03-02T10:19:22.731Z,53.39
2024-03-02T10:21:52.954Z,53.35
2024-03-02T10:24:23.533Z,53.39
2024-03-02T10:26:52.450Z,53.10
2024-03-02T10:29:20.781Z,52.81
2024-03-02T10:31:49.174Z,51.85
2024-03-02T10:34:17.648Z,51.60
2024-03-02T10:36:48.993Z,51.42
2024-03-02T10:39:18.627Z,51.25
2024-03-02T10:41:49.176Z,51.42
2024-03-02T10:44:17.794Z,51.42
2024-03-02T10:46:48.747Z,50.52
2024-03-02T10:49:16.822Z,50.25
2024-03-02T10:51:45.372Z,50.55
2024-03-02T10:54:13.648Z,50.33
2024-03-02T10:56:43.791Z,50.59
2024-03-02T10:59:38.107Z,50.23
2024-03-02T11:02:09.809Z,49.24
2024-03-02T11:04:40.135Z,49.10
2024-03-02T11:07:13.980Z,48.37
2024-03-02T11:09:46.279Z,47.54
2024-03-02T11:12:24.656Z,47.32
2024-03-02T11:14:55.870Z,46.72
2024-03-02T11:17:26.045Z,46.90
2024-03-02T11:19:54.761Z,47.10
2024-03-02T11:22:23.229Z,47.44
2024-03-02T11:24:53.523Z,47.15
2024-03-02T11:27:47.235Z,45.74
2024-03-02T11:30:34.345Z,45.07
2024-03-02T11:33:11.511Z,44.67
2024-03-02T11:35:49.749Z,44.66
2024-03-02T11:38:19.123Z,44.46
2024-03-02T11:40:48.286Z,45.10
2024-03-02T11:43:16.546Z,45.03
2024-03-02T11:45:46.096Z,45.04
2024-03-02T11:48:17.636Z,45.09
2024-03-02T11:50:52.144Z,45.84
2024-03-02T11:53:22.210Z,45.39
2024-03-02T11:55:51.482Z,45.60
2024-03-02T11:58:22.236Z,44.89
2024-03-02T12:00:57.848Z,44.92
2024-03-02T12:03:27.746Z,45.48
2024-03-02T12:05:57.268Z,45.39
2024-03-02T12:08:25.984Z,45.08
2024-03-02T12:10:59.559Z,44.69
2024-03-02T12:13:28.366Z,44.04
2024-03-02T12:15:59.794Z,44.39
2024-03-02T12:18:28.335Z,44.89
2024-03-02T12:20:59.303Z,44.53
2024-03-02T12:23:28.216Z,43.78
2024-03-02T12:25:56.990Z,42.67
2024-03-02T12:28:25.263Z,41.89
2024-03-02T12:30:53.728Z,42.30
2024-03-02T12:33:22.541Z,42.74
2024-03-02T12:35:51.786Z,43.01
2024-03-02T12:38:21.104Z,43.22
2024-03-02T12:40:51.076Z,42.82
2024-03-02T12:43:20.061Z,43.21
2024-03-02T12:45:48.986Z,43.41
2024-03-02T12:48:17.395Z,43.33
2024-03-02T12:50:45.979Z,43.57
2024-03-02T12:53:20.524Z,43.71
2024-03-02T12:55:50.442Z,43.44
2024-03-02T12:58:21.180Z,43.25
2024-03-02T13:00:50.255Z,43.54
2024-03-02T13:03:24.090Z,43.65
2024-03-02T13:05:54.534Z,43.60
2024-03-02T13:08:22.932Z,42.95
2024-03-02T13:10:51.178Z,42.54
2024-03-02T13:13:19.744Z,41.90
2024-03-02T13:15:48.363Z,41.34
2024-03-02T13:18:19.685Z,41.62
2024-03-02T13:20:48.151Z,39.86
2024-03-02T13:23:16.419Z,39.49
2024-03-02T13:25:44.696Z,39.40
2024-03-02T13:28:13.378Z,38.65
2024-03-02T13:30:42.435Z,38.07
2024-03-02T13:33:11.210Z,37.90
2024-03-02T13:35:39.276Z,37.95
2024-03-02T13:38:07.505Z,38.65
2024-03-02T13:40:36.965Z,39.32
2024-03-02T13:43:06.207Z,39.84
2024-03-02T13:45:34.975Z,40.53
2024-03-02T13:48:04.802Z,40.68
2024-03-02T13:50:33.924Z,41.02
2024-03-02T13:53:04.242Z,41.00
2024-03-02T13:55:32.934Z,41.03
2024-03-02T13:58:01.596Z,40.94
2024-03-02T14:00:30.974Z,40.40
2024-03-02T14:02:59.395Z,40.77
2024-03-02T14:05:28.361Z,41.16
2024-03-02T14:07:56.671Z,41.11
2024-03-02T14:10:25.071Z,41.13
2024-03-02T14:12:53.352Z,41.45
2024-03-02T14:15:22.062Z,41.06
2024-03-02T14:17:50.945Z,40.49
2024-03-02T14:20:23.634Z,40.51
2024-03-02T14:22:52.072Z,40.88
2024-03-02T14:25:20.928Z,41.04
2024-03-02T14:28:07.956Z,40.92
2024-03-02T14:30:38.489Z,40.68
2024-03-02T14:33:07.233Z,40.42
2024-03-02T14:35:36.019Z,39.93
2024-03-02T14:38:06.113Z,39.31
2024-03-02T14:40:34.555Z,39.02
2024-03-02T14:43:02.732Z,39.08
2024-03-02T14:45:31.249Z,39.24
2024-03-02T14:48:02.747Z,39.60
2024-03-02T14:50:31.769Z,39.75
2024-03-02T14:53:00.125Z,40.26
2024-03-02T14:55:28.733Z,40.35
2024-03-02T14:57:56.932Z,40.54
2024-03-02T15:00:25.196Z,40.19
2024-03-02T15:02:53.376Z,39.99
2024-03-02T15:05:21.537Z,39.00
2024-03-02T15:07:49.602Z,39.12
2024-03-02T15:10:18.386Z,40.01
2024-03-02T15:12:47.087Z,40.38
2024-03-02T15:15:15.840Z,40.72
2024-03-02T15:17:44.620Z,41.25
2024-03-02T15:20:13.254Z,42.36
2024-03-02T15:22:42.421Z,43.02
2024-03-02T15:25:11.066Z,43.44
2024-03-02T15:27:39.600Z,43.50
2024-03-02T15:30:08.472Z,43.67
2024-03-02T15:32:38.122Z,44.07
2024-03-02T15:35:07.692Z,44.75
2024-03-02T15:37:35.980Z,45.50
2024-03-02T15:40:07.991Z,46.18
2024-03-02T15:42:37.022Z,46.39
2024-03-02T15:45:06.107Z,46.45
2024-03-02T15:47:34.953Z,46.78
2024-03-02T15:50:05.335Z,47.29
2024-03-02T15:52:33.602Z,47.63
2024-03-02T15:55:02.953Z,48.25
2024-03-02T15:57:31.895Z,48.52
2024-03-02T16:00:00.140Z,48.95
2024-03-02T16:02:28.806Z,49.36
2024-03-02T16:04:57.928Z,49.63
2024-03-02T16:07:26.046Z,49.96
2024-03-02T16:09:54.306Z,50.34
2024-03-02T16:12:23.201Z,50.45
2024-03-02T16:14:52.806Z,50.58
2024-03-02T16:17:20.913Z,50.72
2024-03-02T16:19:49.735Z,50.90
2024-03-02T16:22:18.338Z,51.18
2024-03-02T16:24:46.576Z,51.38
2024-03-02T16:27:14.992Z,51.47
2024-03-02T16:29:43.366Z,51.47
2024-03-02T16:32:11.860Z,51.72
2024-03-02T16:34:40.227Z,51.70
2024-03-02T16:37:08.546Z,51.88
2024-03-02T16:39:36.864Z,51.83
2024-03-02T16:42:04.926Z,51.93
2024-03-02T16:44:33.038Z,52.24
2024-03-02T16:47:01.343Z,52.18
2024-03-02T16:49:30.909Z,52.30
2024-03-02T16:51:59.217Z,52.50
2024-03-02T16:54:27.902Z,52.65
2024-03-02T16:56:56.244Z,52.54
2024-03-02T16:59:24.621Z,52.72
2024-03-02T17:01:52.915Z,52.71
2024-03-02T17:04:25.057Z,52.66
2024-03-02T17:06:53.523Z,52.57
2024-03-02T17:09:22.971Z,52.69
2024-03-02T17:11:51.273Z,52.77
2024-03-02T17:14:19.458Z,52.55
2024-03-02T17:16:47.661Z,52.36
2024-03-02T17:19:16.089Z,52.39
2024-03-02T17:21:44.652Z,52.37
2024-03-02T17:24:12.804Z,52.06
2024-03-02T17:26:41.061Z,52.04
2024-03-02T17:29:09.594Z,51.90
2024-03-02T17:31:37.944Z,51.91
2024-03-02T17:34:06.361Z,52.08
2024-03-02T17:36:34.632Z,51.90
2024-03-02T17:39:05.274Z,51.89
2024-03-02T17:41:33.725Z,51.76
2024-03-02T17:44:02.192Z,52.01
2024-03-02T17:46:30.232Z,51.69
2024-03-02T17:48:58.480Z,51.61
2024-03-02T17:51:26.882Z,51.56
2024-03-02T17:53:55.219Z,51.67
2024-03-02T17:56:23.570Z,51.90
2024-03-02T17:58:51.885Z,51.89
2024-03-02T18:01:20.301Z,51.93
2024-03-02T18:03:48.926Z,51.85
2024-03-02T18:06:17.212Z,51.75
2024-03-02T18:08:45.588Z,51.77
2024-03-02T18:11:18.115Z,51.71
2024-03-02T18:13:47.133Z,51.72
2024-03-02T18:16:16.306Z,51.49
2024-03-02T18:18:44.951Z,50.56
2024-03-02T18:21:13.328Z,49.89
2024-03-02T18:23:42.913Z,49.68
2024-03-02T18:26:11.314Z,49.23
2024-03-02T18:28:41.157Z,49.20
2024-03-02T18:31:12.258Z,49.49
2024-03-02T18:33:40.804Z,49.69
2024-03-02T18:36:09.817Z,49.45
2024-03-02T18:38:37.977Z,49.65
2024-03-02T18:41:06.460Z,50.09
2024-03-02T18:43:34.752Z,50.02
2024-03-02T18:46:04.006Z,50.01
2024-03-02T18:48:32.243Z,49.87
2024-03-02T18:51:05.800Z,49.86
2024-03-02T18:53:33.886Z,50.18
2024-03-02T18:56:01.987Z,50.50
2024-03-02T18:58:31.480Z,50.97
2024-03-02T19:00:59.972Z,51.27
2024-03-02T19:03:28.642Z,51.34
2024-03-02T19:05:56.909Z,51.27
2024-03-02T19:08:28.462Z,51.28
2024-03-02T19:10:56.466Z,51.69
2024-03-02T19:13:27.698Z,51.95
2024-03-02T19:15:55.868Z,52.42
2024-03-02T19:18:24.337Z,52.69
2024-03-02T19:20:52.914Z,52.97
2024-03-02T19:23:25.817Z,53.12
2024-03-02T19:26:00.444Z,53.22
2024-03-02T19:28:28.802Z,53.40
2024-03-02T19:30:57.155Z,53.64
2024-03-02T19:33:26.629Z,53.72
2024-03-02T19:35:55.728Z,53.93
2024-03-02T19:38:26.030Z,54.18
2024-03-02T19:40:54.199Z,54.03
2024-03-02T19:43:22.435Z,54.39
2024-03-02T19:45:50.619Z,54.39
2024-03-02T19:48:19.306Z,54.51
2024-03-02T19:50:49.072Z,54.94
2024-03-02T19:53:17.125Z,54.72
2024-03-02T19:55:45.735Z,54.78
2024-03-02T19:58:14.236Z,54.71
2024-03-02T20:00:42.973Z,54.91
2024-03-02T20:03:12.355Z,54.72
2024-03-02T20:05:40.731Z,54.70
2024-03-02T20:08:09.093Z,54.46
2024-03-02T20:10:37.474Z,54.72
2024-03-02T20:13:07.250Z,54.96
2024-03-02T20:15:35.833Z,54.63
2024-03-02T20:18:04.263Z,54.99
2024-03-02T20:20:32.639Z,55.04
2024-03-02T20:23:00.816Z,54.99
2024-03-02T20:25:29.719Z,55.18
2024-03-02T20:28:00.318Z,55.09
2024-03-02T20:30:28.535Z,54.92
2024-03-02T20:32:57.006Z,54.89
2024-03-02T20:35:25.177Z,54.65
2024-03-02T20:37:53.960Z,54.68
2024-03-02T20:40:22.221Z,54.89
2024-03-02T20:42:50.722Z,55.33
2024-03-02T20:45:19.863Z,55.23
2024-03-02T20:47:48.269Z,55.59
2024-03-02T20:50:16.726Z,55.64
2024-03-02T20:52:46.598Z,55.85
2024-03-02T20:55:15.154Z,55.94
2024-03-02T20:57:43.489Z,56.13
2024-03-02T21:00:12.113Z,56.70
2024-03-02T21:02:40.711Z,56.87
2024-03-02T21:05:09.585Z,57.15
2024-03-02T21:07:39.522Z,57.66
2024-03-02T21:10:10.065Z,58.03
2024-03-02T21:12:40.068Z,58.38
2024-03-02T21:15:08.826Z,58.84
2024-03-02T21:17:37.242Z,58.75
2024-03-02T21:20:09.691Z,59.01
2024-03-02T21:22:39.662Z,59.45
2024-03-02T21:25:13.158Z,59.62
2024-03-02T21:27:42.044Z,59.74
2024-03-02T21:30:11.597Z,59.89
2024-03-02T21:32:39.900Z,60.30
2024-03-02T21:35:08.686Z,60.43
2024-03-02T21:37:37.037Z,60.53
2024-03-02T21:40:06.268Z,60.53
2024-03-02T21:42:34.590Z,60.99
2024-03-02T21:45:02.914Z,61.50
2024-03-02T21:47:31.496Z,61.82
2024-03-02T21:49:59.960Z,62.01
2024-03-02T21:52:28.103Z,62.34
2024-03-02T21:54:56.663Z,62.59
2024-03-02T21:57:26.148Z,62.64
2024-03-02T21:59:54.318Z,62.87
2024-03-02T22:02:22.450Z,62.71
2024-03-02T22:04:50.738Z,62.64
2024-03-02T22:07:19.004Z,63.06
2024-03-02T22:09:47.634Z,63.20
2024-03-02T22:12:15.870Z,63.17
2024-03-02T22:14:44.146Z,63.32
2024-03-02T22:17:13.341Z,63.55
2024-03-02T22:19:41.646Z,63.80
2024-03-02T22:22:10.370Z,64.29
2024-03-02T22:24:39.193Z,64.24
2024-03-02T22:27:07.475Z,64.48
2024-03-02T22:29:36.054Z,64.63
2024-03-02T22:32:06.969Z,64.98
2024-03-02T22:34:35.969Z,64.86
2024-03-02T22:37:04.920Z,64.73
2024-03-02T22:39:33.143Z,64.94
2024-03-02T22:42:01.543Z,65.20
2024-03-02T22:44:29.642Z,65.01
2024-03-02T22:46:57.873Z,64.98
2024-03-02T22:49:25.957Z,65.06
2024-03-02T22:51:54.174Z,65.16
2024-03-02T22:54:22.398Z,65.27
2024-03-02T22:56:50.703Z,65.19
2024-03-02T22:59:18.864Z,65.13
2024-03-02T23:01:47.299Z,65.35
2024-03-02T23:04:15.944Z,65.25
2024-03-02T23:06:44.330Z,65.00
2024-03-02T23:09:15.738Z,64.79
2024-03-02T23:11:44.223Z,64.83
2024-03-02T23:14:12.403Z,64.90
2024-03-02T23:16:45.493Z,64.99
2024-03-02T23:19:15.420Z,65.15
2024-03-02T23:21:43.934Z,65.12
2024-03-02T23:24:12.261Z,65.38
2024-03-02T23:26:40.578Z,65.03
2024-03-02T23:29:08.693Z,64.92
2024-03-02T23:31:37.016Z,65.16
2024-03-02T23:34:05.511Z,65.36
2024-03-02T23:36:33.850Z,65.62
2024-03-02T23:39:05.699Z,65.79
2024-03-02T23:41:35.202Z,65.92
2024-03-02T23:44:03.701Z,65.75
2024-03-02T23:46:32.681Z,65.75
2024-03-02T23:49:00.994Z,65.57
2024-03-02T23:51:29.153Z,65.55
2024-03-02T23:53:57.737Z,65.91
2024-03-02T23:56:26.090Z,66.13
2024-03-02T23:58:54.487Z,65.95
